Airfield :
LOGIN :

Register | Disclaimer

   EN    FR    IT 

 










Legend :    VFR   Marginal VFR   IFR   Intensive IFR   Very Intensive IFR
Visi :
Ceiling :
>= 8 km
>= 3000ft
5 to 8 km
1000 to 3000 ft
1500m to 5 km
500 to 1000 ft
800 to 1500m
200 to 500 ft
< 800m
< 200 ft
Symbols :   Thunderstorms  Fog  Heavy snow  Heavy precipitations  Wind > 20 kt
SIGMETs :     Misc.  Thunderstorms  Icing  Turbulence  Mountain Waves  Volcanic Ashes







- Airport Elevation : 194 ft


EBCV - Chièvres

CURRENT METAR :
  • 180655Z AUTO VRB01KT 2300 BR NCD 08/08 Q1013 YLO

EXPIRED METARs :
  • 180651Z AUTO VRB02KT 2000 BR NCD 08/08 Q1013 YLO
  • 180625Z AUTO 11003KT 0400 FG BKN003/// 07/07 Q1013 RED
  • 180555Z AUTO VRB01KT 0250 FG VV002/// 07/07 Q1013 RED
  • 180525Z AUTO VRB01KT 0150 -RA VV002/// 08/08 Q1013 RED
  • 180455Z AUTO VRB01KT 0050 -RA VV001/// 08/08 Q1013 RED
  • 180425Z AUTO VRB02KT 0150 FG VV002/// 08/08 Q1013 RED

TAF TAF EBCV
Valid from the 18 at 07:00 until the 18 at 16:00 UTC


180541Z 1807/1816 08004KT 9999 FEW030 SCT250
TEMPO 1807/1808 VRB02KT 0500 FG BKN002
BECMG 1807/1809 08004KT 4000 BR SCT008 SCT020
BECMG 1808/1809 08004KT 9999 FEW025 SCT300
BECMG 1815/1816 10004KT 9999 FEW020 SCT100 BKN250 BY EBWM
No reported NOTAMs for that airfield.



MET'MAP, your aeronautical weather chart ! - Copyright ORBIFLY December 2007 - Disclaimer

ORBIFLY MET'MAP TEAM :

Programming & Development : Alexandra Zaïnal
Concept & Development : Baudouin d'Aumeries
Co-Development & Prog : Marc-Olivier Méhu
Technical & hardware support : Manuel Goepfert

Contact : metmap@orbifly.com




SOURCES & CREDITS :

   NOAA